Aklavik, Canada
Current Conditions -  °F | °C
As of 9:00 AM on Tuesday 21 Oct 2014 (Local Time) from CYKD Reporting Station
Light Snow Light Snow  
Wind Chill: 18°   Ceiling: 1200
Heat Index: 25°   Visibility: 2mi
Dew Point: 23°   Wind: 6mph
Humidity: 93%   Direction: 40°NE
Pressure: 29.72"   Gusts: NA
Location:  68.22°N, 135°W
Report Text: CYKD 211500Z 04005KT 2SM -SN VV012 M04/M05 A2972 RMK SN8 SLP063
Loading
Personal Weather Stations






























Interactive Weather Map
Tropical Storm Tracking
New forecast layout! Learn more

10-Day Weather Forecast

Advertisements
Track Severe Weather on mobile